createdAt,value
2019-02-10T00:00:51.288Z,94912.97
2019-02-10T00:15:53.409Z,94911.58
2019-02-10T00:30:53.817Z,94917.83
2019-02-10T00:45:51.276Z,94911.17
2019-02-10T01:00:51.266Z,94907.51
2019-02-10T01:15:50.604Z,94896.59
2019-02-10T01:30:50.482Z,94885.63
2019-02-10T01:45:50.451Z,94882.56
2019-02-10T02:00:51.460Z,94890.39
2019-02-10T02:15:50.746Z,94888.97
2019-02-10T02:30:50.624Z,94877.63
2019-02-10T02:45:50.748Z,94860.23
2019-02-10T03:00:50.588Z,94884.88
2019-02-10T03:15:50.965Z,94892.69
2019-02-10T03:30:52.475Z,94871.86
2019-02-10T03:45:50.895Z,94863.70
2019-02-10T04:00:50.879Z,94899.78
2019-02-10T04:15:53.143Z,94883.28
2019-02-10T04:30:51.181Z,94880.50
2019-02-10T04:45:51.004Z,94893.67
2019-02-10T05:00:51.002Z,94889.34
2019-02-10T05:15:57.606Z,94917.56
2019-02-10T05:30:55.787Z,94915.40
2019-02-10T05:45:51.168Z,94925.13
2019-02-10T06:00:51.125Z,94924.05
2019-02-10T06:15:51.225Z,94938.99
2019-02-10T06:30:53.485Z,94932.84
2019-02-10T06:45:52.002Z,94935.17
2019-02-10T07:30:51.240Z,94947.48
2019-02-10T08:15:59.961Z,94940.86
2019-02-10T09:00:53.902Z,94925.34
2019-02-10T09:15:53.831Z,94910.13
2019-02-10T09:30:51.146Z,94898.31
2019-02-10T11:15:53.422Z,94779.89
2019-02-10T11:30:53.449Z,94774.03
2019-02-10T11:45:54.767Z,94747.23
2019-02-10T12:00:54.604Z,94724.38
2019-02-10T12:15:51.756Z,94713.13
2019-02-10T13:00:53.455Z,94659.48
2019-02-10T13:30:50.784Z,94641.45
2019-02-10T13:45:51.740Z,94633.38
2019-02-10T14:00:51.657Z,94618.16
2019-02-10T14:15:56.723Z,94611.70
2019-02-10T14:30:53.015Z,94603.31
2019-02-10T14:45:51.503Z,94601.50
2019-02-10T15:00:50.969Z,94588.52
2019-02-10T15:15:53.338Z,94587.95
2019-02-10T15:30:51.282Z,94583.08
2019-02-10T15:45:52.343Z,94573.53
2019-02-10T16:00:53.469Z,94583.77
2019-02-10T16:15:51.969Z,94573.73
2019-02-10T16:30:51.701Z,94578.47
2019-02-10T16:45:53.580Z,94571.59
2019-02-10T17:00:51.525Z,94562.02
2019-02-10T17:15:55.132Z,94556.92
2019-02-10T17:30:52.342Z,94548.09
2019-02-10T17:45:51.851Z,94538.91
2019-02-10T18:00:51.521Z,94522.92
2019-02-10T18:31:00.839Z,94521.91
2019-02-10T18:45:57.487Z,94496.64
2019-02-10T19:30:56.887Z,94518.75
2019-02-10T20:15:59.037Z,94474.91
2019-02-10T20:31:05.588Z,94478.58
2019-02-10T21:15:58.350Z,94435.05
2019-02-10T22:00:51.228Z,94379.33
2019-02-10T22:15:51.153Z,94377.56
2019-02-10T22:30:51.169Z,94352.06
2019-02-10T22:45:50.939Z,94356.45
2019-02-10T23:00:57.823Z,94342.95
2019-02-10T23:15:53.063Z,94339.29
2019-02-10T23:30:50.952Z,94333.02
2019-02-10T23:45:52.931Z,94305.96
